Time;durP1;ratioP1;P1;durP2;ratioP2;P2;SDS_P1;SDS_P2;PMS_P1;PMS_P2;Temp;Humidity;BMP_temperature;BMP_pressure;BME280_temperature;BME280_humidity;BME280_pressure;Samples;Min_cycle;Max_cycle;Signal;HPM_P1;HPM_P2
2023/03/19 00:01:46;;;;;;;8.68;7.80;;;10.50;99.90;;;;;;5087552;28;20406;-92
2023/03/19 00:04:12;;;;;;;8.40;7.60;;;11.60;99.90;;;;;;5071131;28;20900;-92
2023/03/19 00:06:38;;;;;;;9.25;8.35;;;10.90;99.90;;;;;;5087263;28;20390;-91
2023/03/19 00:09:05;;;;;;;11.18;8.73;;;10.70;99.90;;;;;;5087405;28;20409;-92
2023/03/19 00:11:32;;;;;;;9.70;8.70;;;10.90;99.90;;;;;;5069780;28;20813;-93
2023/03/19 00:13:57;;;;;;;10.70;8.77;;;10.70;99.90;;;;;;5070526;28;20928;-91
2023/03/19 00:16:23;;;;;;;10.07;9.00;;;10.80;99.90;;;;;;5070362;28;20526;-92
2023/03/19 00:18:48;;;;;;;10.35;9.35;;;10.80;99.90;;;;;;5087030;28;20428;-92
2023/03/19 00:21:14;;;;;;;10.13;9.23;;;10.80;99.90;;;;;;5086937;28;20496;-92
2023/03/19 00:23:40;;;;;;;10.40;9.40;;;10.80;99.90;;;;;;5086749;28;20445;-92
2023/03/19 00:26:05;;;;;;;10.13;9.00;;;10.80;99.90;;;;;;5087157;28;20488;-93
2023/03/19 00:28:31;;;;;;;9.60;8.80;;;10.90;99.90;;;;;;5070238;28;20932;-92
2023/03/19 00:31:05;;;;;;;10.40;9.50;;;11.10;99.90;;;;;;5087405;28;20800;-92
2023/03/19 00:33:31;;;;;;;10.60;9.57;;;11.00;99.90;;;;;;5069977;28;20462;-92
2023/03/19 00:35:57;;;;;;;10.33;9.30;;;10.90;99.90;;;;;;5069783;28;20426;-91
2023/03/19 00:38:23;;;;;;;10.37;9.37;;;10.90;99.90;;;;;;5086694;28;20854;-92
2023/03/19 00:40:49;;;;;;;9.57;8.35;;;11.00;99.90;;;;;;5069434;28;20927;-92
2023/03/19 00:43:15;;;;;;;9.30;8.40;;;11.00;99.90;;;;;;5070004;28;20398;-93
2023/03/19 00:45:40;;;;;;;10.35;9.35;;;10.90;99.90;;;;;;5069494;28;20405;-92
2023/03/19 00:48:06;;;;;;;10.82;9.43;;;11.00;99.90;;;;;;5086866;28;20400;-93
2023/03/19 00:50:32;;;;;;;9.35;8.45;;;11.20;99.90;;;;;;5069204;28;20418;-92
2023/03/19 00:52:58;;;;;;;8.60;7.80;;;11.30;99.90;;;;;;5086265;28;20406;-92
2023/03/19 00:55:24;;;;;;;9.23;8.33;;;11.00;99.90;;;;;;5069173;28;20778;-92
2023/03/19 00:57:51;;;;;;;8.48;7.07;;;11.00;99.90;;;;;;5069816;28;20420;-92
2023/03/19 01:00:18;;;;;;;8.02;6.57;;;11.00;99.90;;;;;;5069549;28;20417;-92
2023/03/19 01:02:43;;;;;;;7.18;6.53;;;11.00;99.90;;;;;;5069242;28;20770;-92
2023/03/19 01:05:09;;;;;;;7.50;6.80;;;11.00;99.90;;;;;;5086789;28;20442;-93
2023/03/19 01:07:35;;;;;;;7.00;6.30;;;10.70;99.90;;;;;;5085506;28;20461;-92
2023/03/19 01:10:01;;;;;;;7.13;6.43;;;11.10;99.90;;;;;;5069567;28;20414;-93
2023/03/19 01:12:27;;;;;;;8.20;7.37;;;11.00;99.90;;;;;;5086505;28;20782;-91
2023/03/19 01:14:52;;;;;;;10.90;9.17;;;11.10;99.90;;;;;;5085905;28;20563;-92
2023/03/19 01:17:18;;;;;;;17.40;13.77;;;11.10;99.90;;;;;;5086112;28;20386;-92
2023/03/19 01:19:44;;;;;;;12.93;11.52;;;11.10;99.90;;;;;;5085984;28;20512;-91
2023/03/19 01:22:10;;;;;;;9.20;8.00;;;11.60;99.90;;;;;;5086074;28;20421;-93
2023/03/19 01:24:35;;;;;;;8.48;7.32;;;11.00;99.90;;;;;;5085676;28;20409;-91
2023/03/19 01:27:01;;;;;;;7.85;7.05;;;11.20;99.90;;;;;;5086130;28;20399;-90
2023/03/19 01:29:26;;;;;;;8.77;7.87;;;11.00;99.90;;;;;;5069107;28;20773;-92
2023/03/19 01:31:52;;;;;;;8.07;7.32;;;11.30;99.90;;;;;;5103097;28;20665;-91
2023/03/19 01:34:18;;;;;;;7.38;6.68;;;11.10;99.90;;;;;;5085228;28;20433;-93
2023/03/19 01:36:43;;;;;;;7.40;6.60;;;11.20;99.90;;;;;;5068876;28;20398;-92
2023/03/19 01:39:10;;;;;;;7.68;6.95;;;11.00;99.90;;;;;;5068568;28;20471;-92
2023/03/19 01:41:36;;;;;;;8.50;7.57;;;11.00;99.90;;;;;;5085336;28;20398;-92
2023/03/19 01:44:02;;;;;;;7.85;7.10;;;11.00;99.90;;;;;;5069169;28;20811;-93
2023/03/19 01:46:35;;;;;;;8.02;7.22;;;11.10;99.90;;;;;;5085808;28;21030;-92
2023/03/19 01:49:05;;;;;;;7.57;6.88;;;10.90;99.90;;;;;;5068914;28;20410;-92
2023/03/19 01:51:40;;;;;;;7.97;7.18;;;10.90;99.90;;;;;;5069007;28;20467;-93
2023/03/19 01:54:13;;;;;;;8.00;7.20;;;10.60;99.90;;;;;;5085185;28;20429;-92
2023/03/19 01:56:41;;;;;;;9.30;8.40;;;11.00;99.90;;;;;;5068262;28;20394;-94
2023/03/19 01:59:20;;;;;;;9.03;8.13;;;10.80;99.90;;;;;;5068045;28;20935;-93
2023/03/19 02:01:57;;;;;;;8.13;7.32;;;10.70;99.90;;;;;;5068490;28;20401;-93
2023/03/19 02:04:25;;;;;;;10.50;7.93;;;10.70;99.90;;;;;;5068123;28;20754;-93
2023/03/19 02:06:54;;;;;;;9.15;8.20;;;10.70;99.90;;;;;;5084786;28;20399;-95
2023/03/19 02:09:20;;;;;;;8.95;7.78;;;11.00;99.90;;;;;;5068030;28;20402;-93
2023/03/19 02:11:46;;;;;;;8.23;6.80;;;10.90;99.90;;;;;;5068044;28;20873;-93
2023/03/19 02:14:12;;;;;;;8.97;7.37;;;10.90;99.90;;;;;;5085075;28;20600;-93
2023/03/19 02:16:38;;;;;;;8.20;7.10;;;10.70;99.90;;;;;;5084749;28;20402;-94
2023/03/19 02:19:08;;;;;;;8.60;7.38;;;10.90;99.90;;;;;;5068545;28;20444;-94
2023/03/19 02:21:34;;;;;;;7.40;6.70;;;10.70;99.90;;;;;;5067844;28;20390;-93
2023/03/19 02:24:11;;;;;;;7.40;6.70;;;10.90;99.90;;;;;;5068103;28;20799;-93
2023/03/19 02:26:38;;;;;;;7.88;6.88;;;10.60;99.90;;;;;;5067425;28;20482;-93
2023/03/19 02:29:04;;;;;;;8.25;7.45;;;10.60;99.90;;;;;;5084480;28;20394;-93
2023/03/19 02:31:30;;;;;;;8.48;7.20;;;10.90;99.90;;;;;;5084921;28;20772;-92
2023/03/19 02:33:58;;;;;;;9.48;7.07;;;10.90;99.90;;;;;;5067682;28;20394;-92
2023/03/19 02:36:28;;;;;;;9.30;7.18;;;11.00;99.90;;;;;;5068614;28;20939;-94
2023/03/19 02:38:57;;;;;;;7.93;6.95;;;11.10;99.90;;;;;;5067734;28;20394;-94
2023/03/19 02:41:25;;;;;;;7.80;6.57;;;11.00;99.90;;;;;;5067713;28;20445;-92
2023/03/19 02:43:52;;;;;;;9.05;7.25;;;10.80;99.90;;;;;;5084759;28;20774;-94
2023/03/19 02:46:18;;;;;;;8.55;7.75;;;11.00;99.90;;;;;;5083886;28;20409;-93
2023/03/19 02:48:43;;;;;;;7.82;6.95;;;10.90;99.90;;;;;;5067681;28;20406;-94
2023/03/19 02:51:09;;;;;;;6.87;6.17;;;11.00;99.90;;;;;;5067385;28;20405;-94
2023/03/19 02:53:35;;;;;;;7.10;6.40;;;10.60;99.90;;;;;;5068454;28;20440;-93
2023/03/19 02:56:01;;;;;;;7.55;6.75;;;10.90;99.90;;;;;;5067292;28;20899;-94
2023/03/19 02:58:27;;;;;;;7.53;6.72;;;10.80;99.90;;;;;;5068106;28;20401;-92
2023/03/19 03:00:52;;;;;;;7.93;6.80;;;10.80;99.90;;;;;;5067018;28;20401;-93
2023/03/19 03:03:18;;;;;;;7.60;6.90;;;10.80;99.90;;;;;;5083778;28;20776;-94
2023/03/19 03:05:44;;;;;;;11.48;9.50;;;11.00;99.90;;;;;;5067620;28;20505;-92
2023/03/19 03:08:10;;;;;;;8.38;7.47;;;10.60;99.90;;;;;;5066618;28;20450;-93
2023/03/19 03:10:36;;;;;;;8.15;7.07;;;10.90;99.90;;;;;;5067590;28;20398;-93
2023/03/19 03:13:02;;;;;;;8.85;7.93;;;11.00;99.90;;;;;;5069395;28;20746;-93
2023/03/19 03:15:28;;;;;;;8.38;7.47;;;11.00;99.90;;;;;;5071071;28;20426;-93
2023/03/19 03:17:55;;;;;;;8.23;7.40;;;10.80;99.90;;;;;;5070777;28;20401;-94
2023/03/19 03:20:21;;;;;;;7.78;7.00;;;11.00;99.90;;;;;;5087998;28;20402;-93
2023/03/19 03:22:47;;;;;;;8.57;7.50;;;10.70;99.90;;;;;;5087942;28;20795;-93
2023/03/19 03:25:13;;;;;;;8.23;7.43;;;10.50;99.90;;;;;;5070627;28;20402;-93
2023/03/19 03:27:39;;;;;;;9.05;8.10;;;10.80;99.90;;;;;;5070938;28;20409;-93
2023/03/19 03:30:07;;;;;;;8.80;7.90;;;10.80;99.90;;;;;;5070532;28;20469;-93
2023/03/19 03:32:37;;;;;;;9.05;8.10;;;10.80;99.90;;;;;;5088296;28;20382;-94
2023/03/19 03:35:04;;;;;;;8.93;8.02;;;10.80;99.90;;;;;;5070759;28;20418;-93
2023/03/19 03:37:29;;;;;;;8.63;7.78;;;10.70;99.90;;;;;;5071274;28;20402;-94
2023/03/19 03:39:55;;;;;;;8.65;7.45;;;11.00;99.90;;;;;;5070836;28;20547;-93
2023/03/19 03:42:21;;;;;;;8.55;7.70;;;11.10;99.90;;;;;;5087378;28;20789;-92
2023/03/19 03:44:47;;;;;;;8.77;7.88;;;10.70;99.90;;;;;;5070344;28;20394;-94
2023/03/19 03:47:13;;;;;;;8.90;8.00;;;11.40;99.90;;;;;;5070829;28;20402;-94
2023/03/19 03:49:39;;;;;;;8.80;8.00;;;10.80;99.90;;;;;;5087866;28;20402;-93
2023/03/19 03:52:05;;;;;;;8.90;8.00;;;10.90;99.90;;;;;;5087081;28;20398;-92
2023/03/19 03:54:30;;;;;;;9.88;8.80;;;10.70;99.90;;;;;;5071105;28;20936;-93
2023/03/19 03:56:56;;;;;;;9.85;8.82;;;10.80;99.90;;;;;;5070488;28;20402;-92
2023/03/19 03:59:23;;;;;;;10.53;9.53;;;11.10;99.90;;;;;;5070132;28;20394;-94
2023/03/19 04:01:48;;;;;;;8.95;8.05;;;10.60;99.90;;;;;;5087447;28;20461;-94
2023/03/19 04:04:14;;;;;;;9.77;8.88;;;10.80;99.90;;;;;;5087359;28;20394;-94
2023/03/19 04:06:40;;;;;;;9.07;8.23;;;10.70;99.90;;;;;;5087091;28;20479;-93
2023/03/19 04:09:06;;;;;;;10.27;8.00;;;10.80;99.90;;;;;;5086202;28;20413;-92
2023/03/19 04:11:33;;;;;;;9.60;8.60;;;10.90;99.90;;;;;;5087326;28;20410;-92
2023/03/19 04:14:00;;;;;;;9.30;8.40;;;10.70;99.90;;;;;;5069841;28;20917;-94
2023/03/19 04:16:27;;;;;;;10.55;9.45;;;10.90;99.90;;;;;;5070667;28;20757;-93
2023/03/19 04:18:53;;;;;;;9.77;8.80;;;10.80;99.90;;;;;;5087048;28;20429;-92
2023/03/19 04:21:18;;;;;;;8.83;7.93;;;10.70;99.90;;;;;;5070182;28;20445;-93
2023/03/19 04:23:44;;;;;;;8.63;7.80;;;10.70;99.90;;;;;;5085896;28;20406;-92
2023/03/19 04:26:11;;;;;;;9.32;8.05;;;11.00;99.90;;;;;;5069601;28;20444;-94
2023/03/19 04:28:36;;;;;;;8.50;7.70;;;11.20;99.90;;;;;;5070196;28;20409;-93
2023/03/19 04:31:05;;;;;;;11.40;9.68;;;10.90;99.90;;;;;;5086229;28;20963;-93
2023/03/19 04:33:31;;;;;;;10.27;9.30;;;11.40;99.90;;;;;;5087156;28;20465;-92
2023/03/19 04:35:57;;;;;;;8.70;7.45;;;11.10;99.90;;;;;;5069473;28;20422;-93
2023/03/19 04:38:25;;;;;;;8.63;7.82;;;10.70;99.90;;;;;;5070038;28;20409;-93
2023/03/19 04:40:51;;;;;;;8.83;8.00;;;11.20;99.90;;;;;;5070054;28;20391;-94
2023/03/19 04:43:17;;;;;;;11.30;8.70;;;11.00;99.90;;;;;;5069158;28;21009;-93
2023/03/19 04:45:43;;;;;;;9.88;8.88;;;10.90;99.90;;;;;;5069999;28;20406;-91
2023/03/19 04:48:09;;;;;;;9.13;8.20;;;10.70;99.90;;;;;;5069641;28;20398;-93
2023/03/19 04:50:35;;;;;;;9.43;8.52;;;10.90;99.90;;;;;;5069896;28;20455;-92
2023/03/19 04:53:01;;;;;;;9.20;8.25;;;10.80;99.90;;;;;;5069471;28;20394;-93
2023/03/19 04:55:27;;;;;;;9.77;8.77;;;10.60;99.90;;;;;;5086490;28;20445;-93
2023/03/19 04:57:53;;;;;;;9.93;9.02;;;11.10;99.90;;;;;;5086028;28;20406;-94
2023/03/19 05:00:19;;;;;;;10.90;9.10;;;10.90;99.90;;;;;;5085774;28;20394;-93
2023/03/19 05:02:46;;;;;;;11.63;9.82;;;10.70;99.90;;;;;;5069427;28;20501;-93
2023/03/19 05:05:12;;;;;;;11.45;10.25;;;10.70;99.90;;;;;;5069201;28;20394;-93
2023/03/19 05:07:39;;;;;;;14.43;12.05;;;10.80;99.90;;;;;;5086387;28;20402;-92
2023/03/19 05:10:06;;;;;;;12.32;11.13;;;10.70;99.90;;;;;;5086086;28;20803;-93
2023/03/19 05:12:32;;;;;;;15.35;12.82;;;10.40;99.90;;;;;;5086207;28;21049;-93
2023/03/19 05:14:58;;;;;;;15.90;13.82;;;10.20;99.90;;;;;;5068716;28;20476;-94
2023/03/19 05:17:24;;;;;;;18.13;14.60;;;10.10;99.90;;;;;;5086060;28;20488;-93
2023/03/19 05:19:53;;;;;;;19.58;15.43;;;10.00;99.90;;;;;;5086008;28;20414;-94
2023/03/19 05:22:19;;;;;;;32.53;14.50;;;10.10;99.90;;;;;;5085615;28;20402;-94
2023/03/19 05:24:45;;;;;;;25.27;14.65;;;9.80;99.90;;;;;;5085310;28;20815;-94
2023/03/19 05:27:11;;;;;;;22.15;15.90;;;10.20;99.90;;;;;;5067816;28;20398;-93
2023/03/19 05:29:37;;;;;;;20.95;14.70;;;9.80;99.90;;;;;;5085528;28;20402;-93
2023/03/19 05:32:04;;;;;;;40.15;16.83;;;9.80;99.90;;;;;;5085605;28;20426;-94
2023/03/19 05:34:30;;;;;;;25.08;16.90;;;9.50;99.90;;;;;;5085632;28;20426;-94
2023/03/19 05:36:56;;;;;;;23.98;18.83;;;9.50;99.90;;;;;;5085511;28;20397;-93
2023/03/19 05:39:22;;;;;;;22.05;17.17;;;9.50;99.90;;;;;;5085049;28;20413;-92
2023/03/19 05:41:48;;;;;;;199.45;20.90;;;9.40;99.90;;;;;;5067944;28;20402;-93
2023/03/19 05:44:14;;;;;;;27.03;19.70;;;9.30;99.90;;;;;;5085526;28;20459;-92
2023/03/19 05:46:40;;;;;;;27.37;19.57;;;9.10;99.90;;;;;;5085996;28;20394;-93
2023/03/19 05:49:06;;;;;;;34.67;19.17;;;9.20;99.90;;;;;;5085737;28;20891;-93
2023/03/19 05:51:31;;;;;;;53.60;17.40;;;9.10;99.90;;;;;;5086029;28;20473;-93
2023/03/19 05:53:57;;;;;;;43.25;18.25;;;9.00;99.90;;;;;;5067771;28;20434;-94
2023/03/19 05:56:23;;;;;;;62.20;21.15;;;9.00;99.90;;;;;;5068062;28;20462;-93
2023/03/19 05:58:48;;;;;;;30.93;22.43;;;8.60;99.90;;;;;;5084961;28;20912;-92
2023/03/19 06:01:15;;;;;;;82.63;19.07;;;8.90;99.90;;;;;;5085061;28;20405;-92
2023/03/19 06:03:40;;;;;;;50.00;19.63;;;8.70;99.90;;;;;;5085159;28;20406;-93
2023/03/19 06:06:06;;;;;;;90.83;24.43;;;9.10;99.90;;;;;;5085051;28;20436;-93
2023/03/19 06:08:32;;;;;;;115.45;23.77;;;8.80;99.90;;;;;;5085524;28;20985;-93
2023/03/19 06:10:58;;;;;;;43.35;25.63;;;8.80;99.90;;;;;;5085121;28;20497;-94
2023/03/19 06:13:24;;;;;;;71.78;23.48;;;8.80;99.90;;;;;;5085360;28;20425;-93
2023/03/19 06:15:50;;;;;;;138.18;28.13;;;8.40;99.90;;;;;;5067983;28;20437;-94
2023/03/19 06:18:18;;;;;;;51.97;26.87;;;9.20;99.90;;;;;;5084605;28;20521;-93
2023/03/19 06:20:45;;;;;;;115.93;23.83;;;8.60;99.90;;;;;;5084803;28;20455;-94
2023/03/19 06:23:11;;;;;;;47.03;28.73;;;8.80;99.90;;;;;;5084976;28;20532;-93
2023/03/19 06:25:36;;;;;;;56.65;33.10;;;8.80;99.90;;;;;;5067910;28;20418;-93
2023/03/19 06:28:03;;;;;;;63.70;34.45;;;8.80;99.90;;;;;;5067625;28;20410;-91
2023/03/19 06:30:28;;;;;;;64.95;35.15;;;8.90;99.90;;;;;;5084898;28;20400;-94
2023/03/19 06:32:54;;;;;;;66.30;36.35;;;8.90;99.90;;;;;;5067903;28;20983;-93
2023/03/19 06:35:20;;;;;;;62.15;36.40;;;9.20;99.90;;;;;;5067782;28;20464;-94
2023/03/19 06:37:46;;;;;;;63.13;35.77;;;9.30;99.90;;;;;;5067433;28;20430;-93
2023/03/19 06:40:12;;;;;;;69.30;37.67;;;9.60;99.90;;;;;;5068085;28;20402;-92
2023/03/19 06:42:37;;;;;;;52.53;33.43;;;9.60;99.90;;;;;;5067784;28;20414;-93
2023/03/19 06:45:03;;;;;;;58.95;33.47;;;9.80;99.90;;;;;;5067914;28;20539;-93
2023/03/19 06:47:29;;;;;;;54.55;32.83;;;9.80;99.90;;;;;;5086686;28;20405;-93
2023/03/19 06:49:55;;;;;;;51.70;31.37;;;10.10;99.90;;;;;;5071763;28;20410;-93
2023/03/19 06:52:21;;;;;;;51.95;31.17;;;10.20;99.90;;;;;;5089178;28;20402;-94
2023/03/19 06:54:46;;;;;;;42.57;30.37;;;9.80;99.90;;;;;;5071705;28;20425;-93
2023/03/19 06:57:12;;;;;;;43.57;29.17;;;10.20;99.90;;;;;;5088699;28;20390;-94
2023/03/19 06:59:38;;;;;;;46.97;31.25;;;10.10;99.90;;;;;;5088813;28;20402;-93
2023/03/19 07:02:04;;;;;;;46.17;29.60;;;10.10;99.90;;;;;;5088459;28;20417;-93
2023/03/19 07:04:30;;;;;;;42.38;28.42;;;10.10;99.90;;;;;;5088883;28;20909;-92
2023/03/19 07:06:55;;;;;;;36.67;26.30;;;10.10;99.90;;;;;;5088308;28;20446;-94
2023/03/19 07:09:21;;;;;;;38.05;27.10;;;10.40;99.90;;;;;;5088919;28;20402;-92
2023/03/19 07:11:47;;;;;;;31.42;24.67;;;10.30;99.90;;;;;;5088496;28;20418;-93
2023/03/19 07:14:12;;;;;;;34.20;25.65;;;10.20;99.90;;;;;;5088366;28;20425;-93
2023/03/19 07:16:38;;;;;;;36.10;25.90;;;10.30;99.90;;;;;;5088633;28;20394;-93
2023/03/19 07:19:04;;;;;;;34.72;25.13;;;10.60;99.90;;;;;;5088120;28;20401;-93
2023/03/19 07:21:29;;;;;;;29.17;23.05;;;10.40;99.90;;;;;;5088406;28;20920;-92
2023/03/19 07:23:55;;;;;;;31.07;24.33;;;10.60;99.90;;;;;;5088093;28;20396;-93
2023/03/19 07:26:21;;;;;;;26.83;21.97;;;10.60;99.90;;;;;;5088428;28;20402;-93
2023/03/19 07:28:47;;;;;;;30.30;24.52;;;10.60;99.90;;;;;;5088143;28;20398;-92
2023/03/19 07:31:13;;;;;;;25.88;21.98;;;10.30;99.90;;;;;;5088677;28;20427;-93
2023/03/19 07:33:38;;;;;;;23.75;20.40;;;10.80;99.90;;;;;;5071324;28;20465;-93
2023/03/19 07:36:04;;;;;;;26.40;21.80;;;10.70;99.90;;;;;;5087617;28;20824;-92
2023/03/19 07:38:30;;;;;;;25.35;20.90;;;10.70;99.90;;;;;;5087903;28;20398;-93
2023/03/19 07:40:56;;;;;;;23.60;20.92;;;11.60;99.90;;;;;;5087898;28;20845;-93
2023/03/19 07:43:21;;;;;;;24.60;21.13;;;10.70;99.90;;;;;;5088430;28;20509;-93
2023/03/19 07:45:47;;;;;;;29.15;23.73;;;11.50;99.90;;;;;;5087720;28;20754;-93
2023/03/19 07:48:13;;;;;;;31.38;24.75;;;10.80;99.90;;;;;;5088401;28;20803;-92
2023/03/19 07:50:38;;;;;;;31.40;26.80;;;10.70;99.90;;;;;;5087305;28;20398;-92
2023/03/19 07:53:05;;;;;;;32.95;27.40;;;10.70;99.90;;;;;;5088585;28;20406;-93
2023/03/19 07:55:30;;;;;;;34.83;28.65;;;11.00;99.90;;;;;;5087602;28;20468;-93
2023/03/19 07:57:56;;;;;;;33.55;27.67;;;10.60;99.90;;;;;;5086260;28;20455;-92
2023/03/19 08:00:22;;;;;;;35.80;28.98;;;10.70;99.90;;;;;;5086897;28;20972;-93
2023/03/19 08:02:47;;;;;;;38.47;30.63;;;10.70;99.90;;;;;;5088799;28;20402;-92
2023/03/19 08:05:13;;;;;;;38.57;30.97;;;10.70;99.90;;;;;;5087835;28;20410;-92
2023/03/19 08:07:39;;;;;;;41.55;32.35;;;10.60;99.90;;;;;;5103817;28;20406;-93
2023/03/19 08:10:06;;;;;;;41.70;32.85;;;10.60;99.90;;;;;;5087521;28;20405;-92
2023/03/19 08:12:33;;;;;;;46.97;35.35;;;10.60;99.90;;;;;;5087444;28;20840;-93
2023/03/19 08:14:59;;;;;;;42.58;32.78;;;10.90;99.90;;;;;;5086804;28;20509;-93
2023/03/19 08:17:26;;;;;;;40.58;31.80;;;10.60;99.90;;;;;;5070210;28;20457;-93
2023/03/19 08:19:51;;;;;;;40.63;31.40;;;10.90;99.90;;;;;;5087664;28;21191;-93
2023/03/19 08:22:17;;;;;;;45.00;33.57;;;10.60;99.90;;;;;;5070718;28;20504;-92
2023/03/19 08:24:42;;;;;;;46.78;33.75;;;11.00;99.90;;;;;;5086845;28;20398;-94
2023/03/19 08:27:08;;;;;;;49.67;36.00;;;10.60;99.90;;;;;;5087778;28;20394;-93
2023/03/19 08:29:34;;;;;;;50.40;35.17;;;10.50;99.90;;;;;;5069733;28;20398;-92
2023/03/19 08:32:00;;;;;;;43.60;32.80;;;10.60;99.90;;;;;;5086966;28;20458;-93
2023/03/19 08:34:26;;;;;;;44.55;33.22;;;10.60;99.90;;;;;;5086561;28;20887;-92
2023/03/19 08:36:52;;;;;;;43.42;33.17;;;10.70;99.90;;;;;;5069407;28;20498;-93
2023/03/19 08:39:17;;;;;;;46.88;34.42;;;10.60;99.90;;;;;;5086944;28;20447;-92
2023/03/19 08:41:43;;;;;;;44.60;32.83;;;10.60;99.90;;;;;;5069031;28;20402;-93
2023/03/19 08:44:09;;;;;;;45.30;33.50;;;10.70;99.90;;;;;;5087617;28;20493;-92
2023/03/19 08:46:35;;;;;;;44.03;33.45;;;10.70;99.90;;;;;;5086624;28;20485;-92
2023/03/19 08:49:01;;;;;;;43.78;33.85;;;10.80;99.90;;;;;;5087000;28;20904;-93
2023/03/19 08:51:29;;;;;;;40.50;32.50;;;10.70;99.90;;;;;;5085993;28;20493;-92
2023/03/19 08:53:54;;;;;;;42.08;32.05;;;10.60;99.90;;;;;;5086688;28;20440;-93
2023/03/19 08:56:20;;;;;;;39.05;31.15;;;10.50;99.90;;;;;;5086481;28;20438;-93
2023/03/19 08:58:46;;;;;;;40.57;31.67;;;10.50;99.90;;;;;;5086523;28;20433;-92
2023/03/19 09:01:13;;;;;;;42.08;32.15;;;10.50;99.90;;;;;;5086693;28;20428;-93
2023/03/19 09:03:40;;;;;;;40.80;30.63;;;10.50;99.90;;;;;;5086056;28;20467;-93
2023/03/19 09:06:08;;;;;;;40.60;31.20;;;10.80;99.90;;;;;;5086426;28;20394;-93
2023/03/19 09:08:35;;;;;;;39.60;30.45;;;10.80;99.90;;;;;;5068801;28;20428;-93
2023/03/19 09:11:02;;;;;;;44.25;32.33;;;10.30;99.90;;;;;;5087176;28;20447;-92
2023/03/19 09:13:27;;;;;;;47.58;32.83;;;10.50;99.90;;;;;;5086035;28;20402;-92
2023/03/19 09:15:53;;;;;;;50.38;33.58;;;10.40;99.90;;;;;;5085744;28;20426;-92
2023/03/19 09:18:19;;;;;;;48.87;33.70;;;10.40;99.90;;;;;;5086107;28;20398;-92
2023/03/19 09:20:46;;;;;;;49.13;34.03;;;10.90;99.90;;;;;;5068951;28;20455;-92
2023/03/19 09:23:11;;;;;;;46.08;31.80;;;10.40;99.90;;;;;;5086338;28;20406;-92
2023/03/19 09:25:37;;;;;;;41.13;30.58;;;10.40;99.90;;;;;;5068510;28;20410;-93
2023/03/19 09:28:03;;;;;;;44.13;30.27;;;10.40;99.90;;;;;;5069182;28;20414;-92
2023/03/19 09:30:28;;;;;;;46.50;31.50;;;10.20;99.90;;;;;;5085668;28;20401;-92
2023/03/19 09:32:54;;;;;;;45.97;30.98;;;10.40;99.90;;;;;;5085406;28;20422;-93
2023/03/19 09:35:21;;;;;;;45.38;30.33;;;10.20;99.90;;;;;;5068596;28;20428;-92
2023/03/19 09:37:46;;;;;;;48.27;32.07;;;10.10;99.90;;;;;;5085932;28;20400;-92
2023/03/19 09:40:23;;;;;;;55.77;34.53;;;10.10;99.90;;;;;;5086246;28;20451;-92
2023/03/19 09:43:30;;;;;;;52.72;35.30;;;10.00;99.90;;;;;;5085464;28;20406;-92
2023/03/19 09:45:57;;;;;;;61.78;37.65;;;10.10;99.90;;;;;;5085708;28;20757;-92
2023/03/19 09:48:32;;;;;;;68.97;39.17;;;10.10;99.90;;;;;;5068084;28;20487;-92
2023/03/19 09:51:01;;;;;;;65.45;39.35;;;10.10;99.90;;;;;;5085570;28;20405;-92
2023/03/19 09:53:39;;;;;;;77.47;42.85;;;10.10;99.90;;;;;;5086190;28;20390;-92
2023/03/19 09:56:08;;;;;;;78.18;41.30;;;10.20;99.90;;;;;;5084968;28;20455;-93
2023/03/19 09:58:35;;;;;;;84.37;44.30;;;10.50;99.90;;;;;;5085386;28;20413;-92
2023/03/19 10:01:01;;;;;;;71.35;40.45;;;10.70;99.90;;;;;;5085249;28;20406;-92
2023/03/19 10:03:48;;;;;;;67.17;38.10;;;10.20;99.90;;;;;;5087115;28;20398;-93
2023/03/19 10:06:32;;;;;;;59.63;35.60;;;10.20;99.90;;;;;;5085419;28;20398;-90
2023/03/19 10:09:02;;;;;;;60.53;35.30;;;10.30;99.90;;;;;;5084560;28;20410;-92
2023/03/19 10:12:07;;;;;;;63.45;33.13;;;10.50;99.90;;;;;;5085267;28;20955;-93
2023/03/19 10:14:57;;;;;;;56.17;32.58;;;10.40;99.90;;;;;;5067967;28;20417;-92
2023/03/19 10:17:34;;;;;;;51.90;30.43;;;10.40;99.90;;;;;;5067810;28;20422;-93
2023/03/19 10:20:27;;;;;;;51.92;31.48;;;10.50;99.90;;;;;;5085518;28;20448;-91
2023/03/19 10:23:03;;;;;;;65.88;32.78;;;10.40;99.90;;;;;;5067539;28;20458;-93
2023/03/19 10:25:31;;;;;;;55.92;30.80;;;10.60;99.90;;;;;;5084862;28;20919;-93
2023/03/19 10:28:19;;;;;;;53.22;29.35;;;10.40;99.90;;;;;;5084944;28;20432;-92
2023/03/19 10:31:03;;;;;;;44.42;27.88;;;10.40;99.90;;;;;;5084671;28;20448;-92
2023/03/19 10:33:43;;;;;;;47.47;28.10;;;10.60;99.90;;;;;;5063588;28;20433;-93
2023/03/19 10:36:10;;;;;;;49.40;28.95;;;10.40;99.90;;;;;;5084650;28;20511;-93
2023/03/19 10:38:43;;;;;;;47.58;28.10;;;10.40;99.90;;;;;;5084654;28;20409;-93
2023/03/19 10:41:35;;;;;;;46.45;27.35;;;10.40;99.90;;;;;;5085494;28;20489;-92
2023/03/19 10:44:08;;;;;;;42.88;25.38;;;10.30;99.90;;;;;;5067914;28;20455;-92
2023/03/19 10:46:39;;;;;;;41.55;24.48;;;10.50;99.90;;;;;;5084601;28;20398;-93
2023/03/19 10:49:10;;;;;;;41.47;25.30;;;10.40;99.90;;;;;;5084869;28;20433;-93
2023/03/19 10:51:37;;;;;;;43.00;26.30;;;10.40;99.90;;;;;;5084682;28;20467;-93
2023/03/19 10:54:20;;;;;;;50.17;28.73;;;10.80;99.90;;;;;;5085156;28;20443;-92
2023/03/19 10:56:46;;;;;;;46.33;28.57;;;10.50;99.90;;;;;;5084878;28;20493;-93
2023/03/19 10:59:28;;;;;;;51.20;29.42;;;10.50;99.90;;;;;;5067796;28;20463;-92
2023/03/19 11:02:13;;;;;;;39.83;25.38;;;10.50;99.90;;;;;;5067453;28;20451;-92
2023/03/19 11:04:38;;;;;;;41.23;25.73;;;10.60;99.90;;;;;;5084507;28;20951;-92
2023/03/19 11:07:13;;;;;;;42.07;25.90;;;10.60;99.90;;;;;;5084982;28;20413;-92
2023/03/19 11:09:41;;;;;;;40.20;25.53;;;10.60;99.90;;;;;;5084327;28;20936;-91
2023/03/19 11:12:24;;;;;;;40.25;25.02;;;11.20;99.90;;;;;;5084744;28;20932;-93
2023/03/19 11:14:56;;;;;;;45.85;27.05;;;11.00;99.90;;;;;;5084366;28;20487;-92
2023/03/19 11:17:44;;;;;;;47.28;28.58;;;10.80;99.90;;;;;;5067387;28;20410;-92
2023/03/19 11:20:19;;;;;;;51.40;31.42;;;10.70;99.90;;;;;;5084541;28;20441;-92
2023/03/19 11:22:46;;;;;;;52.95;31.75;;;10.70;99.90;;;;;;5084322;28;20406;-92
2023/03/19 11:25:39;;;;;;;53.10;29.88;;;11.00;99.90;;;;;;5084826;28;20916;-93
2023/03/19 11:28:13;;;;;;;50.95;30.85;;;10.50;99.90;;;;;;5083698;28;20413;-92
2023/03/19 11:30:50;;;;;;;47.83;28.35;;;10.50;99.90;;;;;;5084005;28;20410;-92
2023/03/19 11:33:37;;;;;;;47.67;28.05;;;10.50;99.90;;;;;;5069682;28;20414;-92
2023/03/19 11:36:27;;;;;;;51.47;27.95;;;10.50;99.90;;;;;;5071074;28;20978;-90
2023/03/19 11:39:24;;;;;;;47.85;26.73;;;10.40;99.90;;;;;;5104912;28;20398;-92
2023/03/19 11:42:10;;;;;;;38.87;23.70;;;10.50;99.90;;;;;;5088573;28;20414;-91
2023/03/19 11:44:54;;;;;;;39.33;23.57;;;10.50;99.90;;;;;;5087374;28;20405;-92
2023/03/19 11:47:53;;;;;;;36.97;23.70;;;10.60;99.90;;;;;;5088072;28;20410;-92
2023/03/19 11:50:26;;;;;;;39.33;24.13;;;10.60;99.90;;;;;;5071218;28;20402;-92
2023/03/19 11:53:24;;;;;;;41.28;24.52;;;10.60;99.90;;;;;;5087460;28;20406;-92
2023/03/19 11:56:19;;;;;;;40.83;24.40;;;10.60;99.90;;;;;;5053014;28;20426;-93
2023/03/19 11:59:22;;;;;;;38.05;22.73;;;10.70;99.90;;;;;;5060221;28;20462;-90
2023/03/19 12:02:12;;;;;;;40.85;24.02;;;10.80;99.90;;;;;;5070835;28;20406;-92
2023/03/19 12:05:04;;;;;;;44.40;24.65;;;10.80;99.90;;;;;;5070650;28;20413;-92
2023/03/19 12:07:51;;;;;;;45.50;25.75;;;10.80;99.90;;;;;;5087522;28;20410;-91
2023/03/19 12:10:57;;;;;;;45.63;26.27;;;10.80;99.90;;;;;;5070421;28;20432;-92
2023/03/19 12:13:35;;;;;;;45.92;26.73;;;10.80;99.90;;;;;;5087460;28;20410;-92
2023/03/19 12:16:37;;;;;;;46.92;26.00;;;10.80;99.90;;;;;;5087477;28;20433;-91
2023/03/19 12:19:30;;;;;;;43.35;24.88;;;10.80;99.90;;;;;;5086672;28;20451;-92
2023/03/19 12:22:18;;;;;;;41.70;23.60;;;10.90;99.90;;;;;;5087484;28;20398;-92
2023/03/19 12:25:08;;;;;;;40.58;22.30;;;10.80;99.90;;;;;;5070133;28;20414;-92
2023/03/19 12:27:40;;;;;;;40.63;23.37;;;10.70;99.90;;;;;;5070160;28;20410;-92
2023/03/19 12:30:31;;;;;;;40.05;23.08;;;10.90;99.90;;;;;;5087348;28;20406;-92
2023/03/19 12:33:18;;;;;;;39.10;22.83;;;10.70;99.90;;;;;;5086852;28;20417;-92
2023/03/19 12:35:48;;;;;;;38.00;22.52;;;10.80;99.90;;;;;;5069359;28;20437;-93
2023/03/19 12:38:30;;;;;;;36.28;21.77;;;10.80;99.90;;;;;;5104209;28;20401;-92
2023/03/19 12:41:05;;;;;;;31.75;19.40;;;11.00;99.90;;;;;;5087007;28;20410;-91
2023/03/19 12:43:50;;;;;;;34.33;21.15;;;10.90;99.90;;;;;;5086638;28;20524;-92
2023/03/19 12:46:24;;;;;;;34.80;20.88;;;10.90;99.90;;;;;;5085705;28;20406;-92
2023/03/19 12:49:09;;;;;;;36.00;20.92;;;10.90;99.90;;;;;;5069489;28;20406;-92